Flight Track Log - Related Links

Times and Time Zones

All times are in EDT time to prevent confusion due to time zone crossing. See the PDT4129 flight status page for this flight to view local times or setup timezone preferences in your user account.

Time Position Orientation Groundspeed Altitude Reporting Facility
EDT Latitude Longitude Course Direction KTS MPH feet Rate Location/Type
Tue 07:01:09 AM 35.7167 -77.4108 282° West 213 245 2,800  Level Washington Center
Tue 07:02:00 AM 35.6830 -77.6652 284° West  Level FlightAware Approximate
Tue 07:02:09 AM 35.7197 -77.4725 274° West 159 183 4,200  Level Washington Center
Tue 07:03:00 AM 35.6883 -77.7364 287° West  Level FlightAware Approximate
Tue 07:03:09 AM 35.7208 -77.5339 271° West 160 184 5,300  Level Washington Center
Tue 07:04:00 AM 35.7055 -77.8054 287° West  Level FlightAware Approximate
Tue 07:04:08 AM 35.7242 -77.5953 274° West 175 201 6,700  Level Washington Center
Tue 07:05:00 AM 35.7167 -77.8755 270° West  Level FlightAware Approximate
Tue 07:05:08 AM 35.7272 -77.6567 274° West 182 209 7,800  Level Washington Center
Tue 07:06:00 AM 35.7307 -77.9565 282° West  Level FlightAware Approximate
Tue 07:06:08 AM 35.7303 -77.7233 273° West 187 215 8,700  Level Washington Center
Tue 07:07:09 AM 35.7353 -77.7953 275° West 202 232 9,200 524 Climbing Washington Center
Tue 07:07:51 AM 35.7361 -77.8617 271° West 235 270 9,600 500 Climbing Washington Center
Tue 07:08:09 AM 35.7400 -77.8747 290° West 218 251 9,700 411 Climbing Washington Center
Tue 07:09:04 AM 35.7403 -77.9617 270° West 241 277 10,100 207 Climbing Washington Center
Tue 07:10:05 AM 35.7428 -78.0461 272° West 254 292 10,100  Level Washington Center
Tue 07:11:05 AM 35.7472 -78.1383 273° West 268 308 10,100  Level Washington Center
Tue 07:12:09 AM 35.7558 -78.2233 277° West 265 305 10,100  Level Washington Center
Tue 07:13:09 AM 35.7600 -78.3156 273° West 270 311 10,100  Level Washington Center
Tue 07:14:10 AM 35.7642 -78.4078 273° West 270 311 10,100  Level Washington Center
Tue 07:15:08 AM 35.7639 -78.5025 270° West 268 308 10,100  Level Washington Center
Tue 07:16:09 AM 35.7719 -78.6000 276° West 270 311 10,100  Level Washington Center
Tue 07:17:09 AM 35.7758 -78.6922 273° West 270 311 10,100  Level Washington Center
Tue 07:18:14 AM 35.7794 -78.7950 273° West 268 308 10,100  Level Washington Center
Tue 07:19:14 AM 35.7833 -78.8847 273° West 268 308 10,100  Level Washington Center
Tue 07:20:15 AM 35.7847 -78.9769 271° West 269 310 10,100  Level Washington Center
Tue 07:21:16 AM 35.7883 -79.0692 273° West 269 310 10,100  Level Washington Center
Tue 07:22:17 AM 35.7942 -79.1617 274° West 268 308 10,100  Level Washington Center
Tue 07:23:31 AM 35.7989 -79.2747 273° West 269 310 10,100 -136 Level Washington Center
Tue 07:25:00 AM 35.7997 -79.3977 270° West  Level FlightAware Approximate
Tue 07:32:00 AM 35.8007 -79.9783 270° West  Level FlightAware Approximate
Tue 07:32:34 AM 35.8136 -80.1003 270° West 277 319 8,700  Level Atlanta Center
Tue 07:33:00 AM 35.8007 -80.0612 270° West  Level FlightAware Approximate
Tue 07:33:29 AM 35.8119 -80.1822 269° West 264 304 8,000  Level Atlanta Center
Tue 07:34:00 AM 35.8006 -80.1441 270° West  Level FlightAware Approximate
Tue 07:34:23 AM 35.8125 -80.2642 271° West 262 302 7,300  Level Atlanta Center
Tue 07:35:00 AM 35.8005 -80.2270 270° West  Level FlightAware Approximate
Tue 07:35:30 AM 35.8031 -80.3697 264° West 267 307 6,400  Level Atlanta Center
Tue 07:36:00 AM 35.8003 -80.3099 270° West  Level FlightAware Approximate
Tue 07:36:31 AM 35.7764 -80.4528 248° West 257 296 6,100  Level Atlanta Center
Tue 07:37:00 AM 35.8001 -80.3928 270° West  Level FlightAware Approximate
Tue 07:37:38 AM 35.7194 -80.5039 216° Southwest 247 284 6,100  Level Atlanta Center
Tue 07:38:45 AM 35.6478 -80.5453 205° Southwest 244 281 6,100  Level Atlanta Center
Tue 07:39:46 AM 35.5881 -80.5811 206° Southwest 244 281 6,100  Level Atlanta Center
Tue 07:40:40 AM 35.5308 -80.6167 207° Southwest 244 281 6,100  Level Atlanta Center
Tue 07:41:41 AM 35.4692 -80.6522 205° Southwest 243 280 6,100  Level Atlanta Center
Tue 07:42:42 AM 35.4156 -80.6750 199° South 203 234 6,100 -375 Level Atlanta Center
Tue 07:43:49 AM 35.3689 -80.7278 223° Southwest 186 214 5,300 -885 Descending Atlanta Center
Tue 07:44:44 AM 35.3408 -80.7672 229° Southwest 177 204 4,300 -984 Descending Atlanta Center
Tue 07:45:51 AM 35.3067 -80.8169 230° Southwest 164 189 3,300 -896 Descending Atlanta Center

Login

Don't have an account? Register now (free) for customized features, flight alerts, and more!